Time;durP1;ratioP1;P1;durP2;ratioP2;P2;SDS_P1;SDS_P2;PMS_P1;PMS_P2;Temp;Humidity;BMP_temperature;BMP_pressure;BME280_temperature;BME280_humidity;BME280_pressure;Samples;Min_cycle;Max_cycle;Signal;HPM_P1;HPM_P2
2023/12/08 00:02:00;;;;;;;76.53;35.00;;;-1.90;99.90;;;;;;5093934;28;20249;-78
2023/12/08 00:04:26;;;;;;;86.73;35.80;;;-1.90;99.90;;;;;;5093672;28;20221;-77
2023/12/08 00:06:53;;;;;;;74.20;34.73;;;-1.90;99.90;;;;;;5093518;28;20230;-77
2023/12/08 00:09:19;;;;;;;77.47;35.00;;;-1.90;99.90;;;;;;5093298;28;20211;-78
2023/12/08 00:11:46;;;;;;;69.43;32.70;;;-1.90;99.90;;;;;;5093264;28;20265;-79
2023/12/08 00:14:13;;;;;;;72.23;33.20;;;-1.80;99.90;;;;;;5093087;28;20220;-79
2023/12/08 00:16:39;;;;;;;73.70;32.87;;;-1.80;99.90;;;;;;5093091;28;20196;-79
2023/12/08 00:19:07;;;;;;;65.43;31.87;;;-1.80;99.90;;;;;;5092929;28;20219;-78
2023/12/08 00:21:34;;;;;;;66.87;32.63;;;-1.80;99.90;;;;;;5093192;28;20200;-78
2023/12/08 00:24:01;;;;;;;65.93;32.30;;;-1.80;99.90;;;;;;5092084;28;20232;-77
2023/12/08 00:26:28;;;;;;;68.90;32.73;;;-1.80;99.90;;;;;;5093084;28;20196;-78
2023/12/08 00:28:55;;;;;;;66.73;32.07;;;-1.80;99.90;;;;;;5093099;28;20204;-78
2023/12/08 00:31:21;;;;;;;65.90;31.40;;;-1.80;99.90;;;;;;5092901;28;20204;-79
2023/12/08 00:33:48;;;;;;;67.43;32.90;;;-1.80;99.90;;;;;;5092816;28;20224;-77
2023/12/08 00:36:17;;;;;;;66.67;31.43;;;-1.80;99.90;;;;;;5092814;28;20205;-81
2023/12/08 00:38:44;;;;;;;69.23;32.57;;;-1.90;99.90;;;;;;5092941;28;20202;-77
2023/12/08 00:41:11;;;;;;;65.27;31.53;;;-1.80;99.90;;;;;;5092759;28;20644;-78
2023/12/08 00:43:38;;;;;;;69.07;31.03;;;-1.90;99.90;;;;;;5092691;28;20201;-77
2023/12/08 00:46:05;;;;;;;72.23;32.67;;;-1.90;99.90;;;;;;5093036;28;20200;-79
2023/12/08 00:48:32;;;;;;;67.13;31.60;;;-1.90;99.90;;;;;;5092415;28;20207;-78
2023/12/08 00:50:58;;;;;;;61.07;30.97;;;-1.90;99.90;;;;;;5093068;28;20305;-79
2023/12/08 00:53:26;;;;;;;69.07;32.17;;;-1.80;99.90;;;;;;5092545;28;20232;-80
2023/12/08 00:55:54;;;;;;;64.93;28.90;;;-1.90;99.90;;;;;;5092791;28;20196;-78
2023/12/08 00:58:20;;;;;;;63.00;31.47;;;-1.80;99.90;;;;;;5092578;28;20249;-78
2023/12/08 01:00:47;;;;;;;61.40;29.37;;;-1.80;99.90;;;;;;5092626;28;20196;-78
2023/12/08 01:03:14;;;;;;;62.30;30.00;;;-1.80;99.90;;;;;;5092772;28;20245;-78
2023/12/08 01:05:40;;;;;;;66.30;32.20;;;-1.80;99.90;;;;;;5092668;28;20206;-78
2023/12/08 01:08:07;;;;;;;60.93;29.20;;;-1.90;99.90;;;;;;5093055;28;20204;-78
2023/12/08 01:10:35;;;;;;;62.03;29.57;;;-1.90;99.90;;;;;;5092520;28;20196;-78
2023/12/08 01:13:02;;;;;;;58.03;27.53;;;-1.90;99.90;;;;;;5092242;28;20416;-78
2023/12/08 01:15:29;;;;;;;57.30;27.83;;;-1.90;99.90;;;;;;5092761;28;20228;-78
2023/12/08 01:17:55;;;;;;;60.33;29.37;;;-1.90;99.90;;;;;;5092331;28;20204;-78
2023/12/08 01:20:22;;;;;;;61.00;30.17;;;-1.90;99.90;;;;;;5092488;28;20204;-78
2023/12/08 01:22:49;;;;;;;60.13;28.57;;;-1.90;99.90;;;;;;5092496;28;20197;-78
2023/12/08 01:25:16;;;;;;;61.03;29.43;;;-1.90;99.90;;;;;;5092264;28;20296;-78
2023/12/08 01:27:44;;;;;;;60.13;29.60;;;-1.90;99.90;;;;;;5092324;28;20258;-78
2023/12/08 01:30:11;;;;;;;61.33;30.33;;;-1.90;99.90;;;;;;5092495;28;20192;-78
2023/12/08 01:32:38;;;;;;;62.83;29.20;;;-1.90;99.90;;;;;;5092399;28;20291;-78
2023/12/08 01:35:06;;;;;;;58.93;29.10;;;-1.90;99.90;;;;;;5093433;28;20625;-78
2023/12/08 01:37:33;;;;;;;58.43;28.87;;;-1.90;99.90;;;;;;5095987;28;20200;-78
2023/12/08 01:39:59;;;;;;;59.70;29.37;;;-1.80;99.90;;;;;;5095906;28;20192;-78
2023/12/08 01:42:26;;;;;;;59.13;29.13;;;-1.80;99.90;;;;;;5096132;28;20253;-78
2023/12/08 01:44:54;;;;;;;56.63;28.47;;;-1.70;99.90;;;;;;5096011;28;20204;-78
2023/12/08 01:47:21;;;;;;;60.03;28.37;;;-1.70;99.90;;;;;;5095640;28;20594;-78
2023/12/08 01:49:49;;;;;;;52.37;27.50;;;-1.70;99.90;;;;;;5095518;28;20687;-78
2023/12/08 01:52:22;;;;;;;57.93;27.47;;;-1.60;99.90;;;;;;5095903;28;20196;-78
2023/12/08 01:54:50;;;;;;;56.97;27.80;;;-1.60;99.90;;;;;;5095432;28;20670;-78
2023/12/08 01:57:18;;;;;;;54.50;27.03;;;-1.60;99.90;;;;;;5095773;28;20196;-78
2023/12/08 01:59:46;;;;;;;54.90;28.17;;;-1.60;99.90;;;;;;5095634;28;20634;-79
2023/12/08 02:02:15;;;;;;;57.60;28.70;;;-1.50;99.90;;;;;;5095474;28;20207;-79
2023/12/08 02:04:45;;;;;;;56.23;26.83;;;-1.50;99.90;;;;;;5095617;28;20204;-79
2023/12/08 02:07:13;;;;;;;56.53;27.83;;;-1.60;99.90;;;;;;5095690;28;20230;-79
2023/12/08 02:09:40;;;;;;;60.20;29.90;;;-1.60;99.90;;;;;;5095429;28;20196;-78
2023/12/08 02:12:07;;;;;;;53.90;27.70;;;-1.60;99.90;;;;;;5095338;28;20801;-78
2023/12/08 02:14:34;;;;;;;52.70;27.67;;;-1.50;99.90;;;;;;5095206;28;20709;-78
2023/12/08 02:17:06;;;;;;;49.67;26.73;;;-1.50;99.90;;;;;;5095314;28;20204;-78
2023/12/08 02:19:34;;;;;;;54.20;27.10;;;-1.50;99.90;;;;;;5095469;28;20204;-79
2023/12/08 02:22:01;;;;;;;47.57;25.03;;;-1.40;99.90;;;;;;5095395;28;20269;-79
2023/12/08 02:24:29;;;;;;;51.77;25.87;;;-1.40;99.90;;;;;;5095222;28;20196;-79
2023/12/08 02:26:55;;;;;;;56.87;26.47;;;-1.40;99.90;;;;;;5095157;28;20204;-79
2023/12/08 02:29:22;;;;;;;52.47;26.83;;;-1.20;99.90;;;;;;5094903;28;20226;-78
2023/12/08 02:31:53;;;;;;;50.03;25.90;;;-1.20;99.90;;;;;;5095033;28;20197;-78
2023/12/08 02:34:22;;;;;;;51.17;26.57;;;-1.20;99.90;;;;;;5094855;28;20235;-78
2023/12/08 02:36:51;;;;;;;49.03;25.90;;;-1.20;99.90;;;;;;5095065;28;20222;-79
2023/12/08 02:39:19;;;;;;;47.53;26.33;;;-1.20;99.90;;;;;;5094763;28;20198;-77
2023/12/08 02:41:47;;;;;;;50.13;26.83;;;-1.20;99.90;;;;;;5095001;28;20242;-77
2023/12/08 02:44:14;;;;;;;44.53;25.27;;;-1.10;99.90;;;;;;5094851;28;20200;-76
2023/12/08 02:46:41;;;;;;;43.60;25.50;;;-1.10;99.90;;;;;;5093763;28;20599;-77
2023/12/08 02:49:07;;;;;;;47.43;25.23;;;-1.10;99.90;;;;;;5094580;28;20274;-77
2023/12/08 02:51:34;;;;;;;47.40;25.10;;;-1.10;99.90;;;;;;5094778;28;20802;-77
2023/12/08 02:54:01;;;;;;;44.83;23.97;;;-1.10;99.90;;;;;;5094732;28;20223;-78
2023/12/08 02:56:27;;;;;;;46.03;23.90;;;-1.10;99.90;;;;;;5094438;28;20202;-77
2023/12/08 02:58:55;;;;;;;46.70;25.13;;;-1.00;99.90;;;;;;5094519;28;20196;-77
2023/12/08 03:01:22;;;;;;;44.03;24.57;;;-1.00;99.90;;;;;;5094437;28;20265;-77
2023/12/08 03:03:48;;;;;;;48.50;26.10;;;-1.00;99.90;;;;;;5094380;28;20578;-77
2023/12/08 03:06:15;;;;;;;45.20;25.00;;;-1.00;99.90;;;;;;5094241;28;20708;-77
2023/12/08 03:08:42;;;;;;;44.80;25.17;;;-0.90;99.90;;;;;;5094435;28;20204;-77
2023/12/08 03:11:08;;;;;;;46.93;24.93;;;-0.90;99.90;;;;;;5094287;28;20226;-77
2023/12/08 03:13:35;;;;;;;43.77;24.57;;;-0.90;99.90;;;;;;5094124;28;20196;-78
2023/12/08 03:16:03;;;;;;;42.97;24.77;;;-0.90;99.90;;;;;;5094096;28;20598;-77
2023/12/08 03:18:30;;;;;;;43.30;23.47;;;-0.90;99.90;;;;;;5094220;28;20284;-77
2023/12/08 03:20:56;;;;;;;42.13;23.43;;;-0.90;99.90;;;;;;5094229;28;20201;-77
2023/12/08 03:23:23;;;;;;;39.97;23.53;;;-0.80;99.90;;;;;;5093973;28;20249;-78
2023/12/08 03:25:50;;;;;;;36.07;22.87;;;-0.80;99.90;;;;;;5097943;28;20560;-76
2023/12/08 03:28:16;;;;;;;35.13;21.70;;;-0.80;99.90;;;;;;5097532;28;20261;-77
2023/12/08 03:30:43;;;;;;;34.67;20.60;;;-0.90;99.90;;;;;;5094360;28;20261;-77
2023/12/08 03:33:11;;;;;;;37.73;22.03;;;-0.80;99.90;;;;;;5093840;28;20196;-77
2023/12/08 03:35:38;;;;;;;38.23;22.47;;;-0.90;99.90;;;;;;5093767;28;20285;-77
2023/12/08 03:38:04;;;;;;;38.17;22.33;;;-0.80;99.90;;;;;;5093755;28;20599;-77
2023/12/08 03:40:31;;;;;;;36.07;21.20;;;-0.80;99.90;;;;;;5093640;28;20197;-78
2023/12/08 03:42:57;;;;;;;34.57;21.93;;;-0.80;99.90;;;;;;5093652;28;20200;-78
2023/12/08 03:45:24;;;;;;;33.97;20.60;;;-0.80;99.90;;;;;;5093946;28;20204;-77
2023/12/08 03:47:51;;;;;;;33.50;21.10;;;-0.80;99.90;;;;;;5093801;28;20208;-77
2023/12/08 03:50:19;;;;;;;32.00;19.93;;;-0.80;99.90;;;;;;5093561;28;20224;-77
2023/12/08 03:52:45;;;;;;;34.80;20.97;;;-0.80;99.90;;;;;;5094280;28;20208;-77
2023/12/08 03:55:12;;;;;;;36.40;21.30;;;-0.80;99.90;;;;;;5095333;28;20220;-77
2023/12/08 03:57:38;;;;;;;34.97;21.13;;;-0.80;99.90;;;;;;5096837;28;20262;-77
2023/12/08 04:00:07;;;;;;;37.20;22.50;;;-0.80;99.90;;;;;;5093633;28;20200;-77
2023/12/08 04:02:33;;;;;;;30.97;19.67;;;-0.70;99.90;;;;;;5093413;28;20287;-78
2023/12/08 04:05:00;;;;;;;29.47;17.80;;;-0.70;99.90;;;;;;5093269;28;20192;-78
2023/12/08 04:07:28;;;;;;;30.00;18.03;;;-0.70;99.90;;;;;;5093272;28;20196;-78
2023/12/08 04:09:54;;;;;;;29.20;18.30;;;-0.70;99.90;;;;;;5093135;28;20249;-78
2023/12/08 04:12:22;;;;;;;31.60;19.37;;;-0.70;99.90;;;;;;5093341;28;20208;-78
2023/12/08 04:14:48;;;;;;;27.77;18.13;;;-0.70;99.90;;;;;;5093112;28;20215;-78
2023/12/08 04:17:15;;;;;;;27.20;18.47;;;-0.70;99.90;;;;;;5092964;28;20261;-78
2023/12/08 04:19:42;;;;;;;30.43;18.10;;;-0.70;99.90;;;;;;5093028;28;20192;-78
2023/12/08 04:22:08;;;;;;;28.73;18.97;;;-0.60;99.90;;;;;;5093028;28;20249;-78
2023/12/08 04:24:36;;;;;;;30.43;18.87;;;-0.70;99.90;;;;;;5093005;28;20203;-77
2023/12/08 04:27:03;;;;;;;31.60;18.50;;;-0.70;99.90;;;;;;5092979;28;20197;-77
2023/12/08 04:29:30;;;;;;;28.63;17.73;;;-0.70;99.90;;;;;;5093017;28;20196;-77
2023/12/08 04:31:56;;;;;;;28.30;17.97;;;-0.70;99.90;;;;;;5092652;28;20652;-77
2023/12/08 04:34:23;;;;;;;26.27;17.20;;;-0.70;99.90;;;;;;5093074;28;20453;-77
2023/12/08 04:36:50;;;;;;;25.87;17.87;;;-0.70;99.90;;;;;;5092832;28;20265;-77
2023/12/08 04:39:16;;;;;;;31.30;18.37;;;-0.70;99.90;;;;;;5092956;28;20246;-77
2023/12/08 04:41:44;;;;;;;30.57;17.90;;;-0.60;99.90;;;;;;5093011;28;20249;-77
2023/12/08 04:44:11;;;;;;;26.83;17.30;;;-0.70;99.90;;;;;;5092805;28;20196;-77
2023/12/08 04:46:38;;;;;;;29.83;19.20;;;-0.70;99.90;;;;;;5093011;28;20204;-77
2023/12/08 04:49:04;;;;;;;30.20;18.17;;;-0.70;99.90;;;;;;5092674;28;20319;-77
2023/12/08 04:51:31;;;;;;;30.20;18.50;;;-0.70;99.90;;;;;;5092717;28;20368;-77
2023/12/08 04:53:57;;;;;;;26.40;17.10;;;-0.70;99.90;;;;;;5092521;28;20203;-77
2023/12/08 04:56:24;;;;;;;26.30;17.07;;;-0.70;99.90;;;;;;5092658;28;20258;-77
2023/12/08 04:58:52;;;;;;;26.47;17.23;;;-0.70;99.90;;;;;;5092859;28;20204;-77
2023/12/08 05:01:19;;;;;;;26.57;17.60;;;-0.70;99.90;;;;;;5092909;28;20245;-77
2023/12/08 05:03:45;;;;;;;26.10;16.50;;;-0.60;99.90;;;;;;5092745;28;20192;-77
2023/12/08 05:06:12;;;;;;;27.10;17.30;;;-0.60;99.90;;;;;;5092505;28;20196;-77
2023/12/08 05:08:39;;;;;;;24.30;16.27;;;-0.70;99.90;;;;;;5092531;28;20211;-78
2023/12/08 05:11:06;;;;;;;27.67;17.50;;;-0.70;99.90;;;;;;5095823;28;20228;-77
2023/12/08 05:13:34;;;;;;;25.40;16.87;;;-0.70;99.90;;;;;;5096375;28;20639;-77
2023/12/08 05:16:02;;;;;;;28.37;17.87;;;-0.70;99.90;;;;;;5096476;28;20228;-77
2023/12/08 05:18:28;;;;;;;26.87;17.87;;;-0.70;99.90;;;;;;5096379;28;20652;-78
2023/12/08 05:20:55;;;;;;;27.90;17.60;;;-0.70;99.90;;;;;;5096500;28;20663;-78
2023/12/08 05:23:22;;;;;;;25.87;17.60;;;-0.70;99.90;;;;;;5096777;28;20192;-77
2023/12/08 05:25:49;;;;;;;29.30;17.83;;;-0.70;99.90;;;;;;5096220;28;20651;-78
2023/12/08 05:28:16;;;;;;;25.87;17.40;;;-0.70;99.90;;;;;;5096374;28;20200;-77
2023/12/08 05:30:43;;;;;;;26.87;17.70;;;-0.70;99.90;;;;;;5096139;28;20196;-77
2023/12/08 05:33:11;;;;;;;27.30;18.37;;;-0.70;99.90;;;;;;5096131;28;20532;-77
2023/12/08 05:35:37;;;;;;;27.90;18.13;;;-0.60;99.90;;;;;;5095925;28;20698;-77
2023/12/08 05:38:04;;;;;;;29.37;17.80;;;-0.60;99.90;;;;;;5096220;28;20234;-77
2023/12/08 05:40:31;;;;;;;29.63;18.67;;;-0.60;99.90;;;;;;5096004;28;20246;-79
2023/12/08 05:42:58;;;;;;;25.50;17.13;;;-0.60;99.90;;;;;;5096154;28;20283;-77
2023/12/08 05:45:24;;;;;;;27.67;16.77;;;-0.60;99.90;;;;;;5095832;28;20208;-77
2023/12/08 05:47:51;;;;;;;28.63;18.13;;;-0.60;99.90;;;;;;5095569;28;20200;-77
2023/12/08 05:50:19;;;;;;;31.47;17.93;;;-0.60;99.90;;;;;;5095561;28;20228;-77
2023/12/08 05:52:45;;;;;;;25.30;17.27;;;-0.60;99.90;;;;;;5095916;28;20234;-77
2023/12/08 05:55:12;;;;;;;29.67;18.43;;;-0.60;99.90;;;;;;5095739;28;20266;-77
2023/12/08 05:57:38;;;;;;;27.37;16.70;;;-0.60;99.90;;;;;;5095587;28;20199;-77
2023/12/08 06:00:09;;;;;;;27.43;17.53;;;-0.60;99.90;;;;;;5095443;28;20261;-77
2023/12/08 06:02:36;;;;;;;25.43;17.03;;;-0.60;99.90;;;;;;5095173;28;20571;-77
2023/12/08 06:05:03;;;;;;;23.87;16.30;;;-0.60;99.90;;;;;;5095303;28;20253;-77
2023/12/08 06:07:31;;;;;;;24.97;16.43;;;-0.50;99.90;;;;;;5095460;28;20193;-77
2023/12/08 06:09:58;;;;;;;25.50;16.80;;;-0.50;99.90;;;;;;5095373;28;20588;-77
2023/12/08 06:12:24;;;;;;;27.60;17.10;;;-0.50;99.90;;;;;;5095338;28;20212;-78
2023/12/08 06:14:51;;;;;;;25.07;16.30;;;-0.50;99.90;;;;;;5095300;28;20200;-78
2023/12/08 06:17:17;;;;;;;26.63;17.53;;;-0.50;99.90;;;;;;5095305;28;20602;-77
2023/12/08 06:19:44;;;;;;;26.40;17.47;;;-0.50;99.90;;;;;;5095282;28;20216;-78
2023/12/08 06:22:11;;;;;;;26.30;17.83;;;-0.50;99.90;;;;;;5095240;28;20537;-78
2023/12/08 06:24:38;;;;;;;30.40;18.93;;;-0.50;99.90;;;;;;5095185;28;20254;-78
2023/12/08 06:27:05;;;;;;;27.90;18.53;;;-0.50;99.90;;;;;;5095086;28;20204;-78
2023/12/08 06:29:32;;;;;;;26.97;16.80;;;-0.50;99.90;;;;;;5094824;28;20196;-78
2023/12/08 06:31:59;;;;;;;26.83;17.63;;;-0.50;99.90;;;;;;5094853;28;20609;-79
2023/12/08 06:34:25;;;;;;;29.00;18.13;;;-0.50;99.90;;;;;;5095179;28;20235;-77
2023/12/08 06:36:52;;;;;;;25.73;17.53;;;-0.60;99.90;;;;;;5094819;28;20228;-77
2023/12/08 06:39:19;;;;;;;25.67;17.60;;;-0.50;99.90;;;;;;5094951;28;20203;-77
2023/12/08 06:41:47;;;;;;;29.40;17.70;;;-0.50;99.90;;;;;;5094807;28;20250;-77
2023/12/08 06:44:14;;;;;;;25.57;17.40;;;-0.50;99.90;;;;;;5094744;28;20372;-76
2023/12/08 06:46:40;;;;;;;27.90;19.07;;;-0.50;99.90;;;;;;5094590;28;20585;-77
2023/12/08 06:49:07;;;;;;;30.97;18.57;;;-0.50;99.90;;;;;;5094678;28;20628;-77
2023/12/08 06:51:35;;;;;;;26.63;17.57;;;-0.40;99.90;;;;;;5094631;28;20289;-79
2023/12/08 06:54:02;;;;;;;28.77;18.83;;;-0.40;99.90;;;;;;5094638;28;20282;-77
2023/12/08 06:56:28;;;;;;;27.90;18.37;;;-0.40;99.90;;;;;;5099391;28;20224;-77
2023/12/08 06:58:56;;;;;;;29.07;17.73;;;-0.40;99.90;;;;;;5095354;28;20332;-77
2023/12/08 07:01:23;;;;;;;28.10;18.80;;;-0.40;99.90;;;;;;5095511;28;20202;-77
2023/12/08 07:03:50;;;;;;;29.80;19.57;;;-0.40;99.90;;;;;;5094461;28;20196;-77
2023/12/08 07:06:17;;;;;;;29.13;18.43;;;-0.40;99.90;;;;;;5094479;28;20257;-78
2023/12/08 07:08:43;;;;;;;24.67;17.13;;;-0.40;99.90;;;;;;5094436;28;20200;-78
2023/12/08 07:11:10;;;;;;;27.23;17.90;;;-0.40;99.90;;;;;;5094168;28;20877;-77
2023/12/08 07:13:37;;;;;;;30.57;18.53;;;-0.40;99.90;;;;;;5094168;28;20227;-77
2023/12/08 07:16:09;;;;;;;29.23;18.43;;;-0.30;99.90;;;;;;5094063;28;20224;-77
2023/12/08 07:18:36;;;;;;;27.10;18.00;;;-0.30;99.90;;;;;;5094159;28;20240;-77
2023/12/08 07:21:03;;;;;;;27.63;18.03;;;-0.30;99.90;;;;;;5093814;28;20192;-77
2023/12/08 07:23:30;;;;;;;30.57;19.00;;;-0.30;99.90;;;;;;5093688;28;20250;-77
2023/12/08 07:25:56;;;;;;;27.67;17.93;;;-0.30;99.90;;;;;;5093927;28;20271;-78
2023/12/08 07:28:23;;;;;;;29.30;19.53;;;-0.20;99.90;;;;;;5094339;28;20604;-80
2023/12/08 07:30:49;;;;;;;29.60;19.63;;;-0.20;99.90;;;;;;5094297;28;20196;-79
2023/12/08 07:33:17;;;;;;;32.27;20.93;;;-0.20;99.90;;;;;;5093327;28;20197;-79
2023/12/08 07:35:44;;;;;;;32.10;20.57;;;-0.20;99.90;;;;;;5093687;28;20216;-79
2023/12/08 07:38:11;;;;;;;30.20;19.97;;;-0.20;99.90;;;;;;5093667;28;20204;-85
2023/12/08 07:40:37;;;;;;;33.60;21.87;;;-0.20;99.90;;;;;;5094238;28;20204;-77
2023/12/08 07:43:04;;;;;;;30.03;20.17;;;-0.10;99.90;;;;;;5094091;28;20203;-73
2023/12/08 07:45:31;;;;;;;33.63;20.73;;;-0.10;99.90;;;;;;5093978;28;20196;-79
2023/12/08 07:47:57;;;;;;;31.37;20.43;;;-0.10;99.90;;;;;;5079993;28;20599;-78
2023/12/08 07:50:26;;;;;;;29.73;19.80;;;-0.20;99.90;;;;;;5073660;28;20319;-80
2023/12/08 07:52:53;;;;;;;38.30;22.33;;;-0.10;99.90;;;;;;5074117;28;20197;-82
2023/12/08 07:55:20;;;;;;;36.67;23.50;;;-0.10;99.90;;;;;;5074393;28;20526;-83
2023/12/08 07:57:47;;;;;;;34.30;21.27;;;-0.10;99.90;;;;;;5073601;28;20255;-82
2023/12/08 08:00:14;;;;;;;33.70;21.70;;;-0.10;99.90;;;;;;5073456;28;20247;-80
2023/12/08 08:02:40;;;;;;;31.40;21.10;;;-0.10;99.90;;;;;;5073096;28;20230;-79
2023/12/08 08:05:08;;;;;;;32.43;21.90;;;-0.10;99.90;;;;;;5073127;28;20250;-78
2023/12/08 08:07:36;;;;;;;34.60;23.07;;;0.00;99.90;;;;;;5072884;28;20201;-78
2023/12/08 08:10:02;;;;;;;37.00;21.37;;;0.00;99.90;;;;;;5073528;28;20208;-81
2023/12/08 08:12:32;;;;;;;38.03;22.50;;;0.00;99.90;;;;;;5073130;28;20197;-76
2023/12/08 08:14:58;;;;;;;35.27;22.30;;;0.00;99.90;;;;;;5072919;28;20219;-80
2023/12/08 08:17:25;;;;;;;37.33;22.90;;;0.10;99.90;;;;;;5072816;28;20229;-76
2023/12/08 08:19:51;;;;;;;33.87;21.30;;;0.10;99.90;;;;;;5072722;28;20200;-78
2023/12/08 08:22:18;;;;;;;34.90;22.23;;;0.10;99.90;;;;;;5073051;28;20201;-81
2023/12/08 08:24:46;;;;;;;33.20;21.90;;;0.20;99.90;;;;;;5072759;28;20201;-75
2023/12/08 08:27:13;;;;;;;34.23;22.67;;;0.20;99.90;;;;;;5072902;28;20250;-75
2023/12/08 08:29:39;;;;;;;31.70;20.70;;;0.20;99.90;;;;;;5072743;28;20201;-77
2023/12/08 08:32:06;;;;;;;34.20;21.87;;;0.20;99.90;;;;;;5072722;28;20197;-74
2023/12/08 08:34:33;;;;;;;30.67;20.67;;;0.20;99.90;;;;;;5072541;28;20627;-77
2023/12/08 08:37:00;;;;;;;32.10;20.97;;;0.20;99.90;;;;;;5072636;28;20224;-76
2023/12/08 08:39:27;;;;;;;30.97;20.87;;;0.30;99.90;;;;;;5072915;28;20193;-79
2023/12/08 08:41:55;;;;;;;36.00;21.83;;;0.30;99.90;;;;;;5072527;28;20197;-78
2023/12/08 08:44:22;;;;;;;33.40;22.27;;;0.40;99.90;;;;;;5072934;28;20193;-78
2023/12/08 08:46:49;;;;;;;34.63;22.63;;;0.40;99.90;;;;;;5076977;28;20668;-80
2023/12/08 08:49:16;;;;;;;30.50;21.57;;;0.40;99.90;;;;;;5076742;28;20240;-82
2023/12/08 08:51:43;;;;;;;37.07;23.13;;;0.40;99.90;;;;;;5077143;28;20201;-79
2023/12/08 08:54:10;;;;;;;33.63;22.67;;;0.40;99.90;;;;;;5076985;28;20247;-80
2023/12/08 08:56:38;;;;;;;31.87;21.00;;;0.50;99.90;;;;;;5076577;28;20683;-79
2023/12/08 08:59:05;;;;;;;35.67;22.13;;;0.50;99.90;;;;;;5076952;28;20196;-80
2023/12/08 09:01:32;;;;;;;32.10;21.93;;;0.60;99.90;;;;;;5076579;28;20197;-81
2023/12/08 09:03:59;;;;;;;32.97;21.73;;;0.60;99.90;;;;;;5076887;28;20249;-81
2023/12/08 09:06:25;;;;;;;36.93;22.73;;;0.60;99.90;;;;;;5076820;28;20205;-80
2023/12/08 09:08:52;;;;;;;35.10;22.90;;;0.60;99.90;;;;;;5077254;28;20250;-80
2023/12/08 09:11:19;;;;;;;32.13;21.63;;;0.60;99.90;;;;;;5076710;28;20254;-77
2023/12/08 09:13:45;;;;;;;34.57;22.43;;;0.60;99.90;;;;;;5077415;28;20197;-77
2023/12/08 09:16:14;;;;;;;33.53;21.47;;;0.60;99.90;;;;;;5077454;28;20620;-78
2023/12/08 09:18:41;;;;;;;31.77;22.80;;;0.70;99.90;;;;;;5081071;28;20649;-81
2023/12/08 09:21:07;;;;;;;38.40;23.87;;;0.60;99.90;;;;;;5078454;28;20205;-80
2023/12/08 09:23:34;;;;;;;35.30;23.47;;;0.70;99.90;;;;;;5076902;28;20197;-81
2023/12/08 09:26:01;;;;;;;30.63;22.00;;;0.80;99.90;;;;;;5076431;28;20660;-80
2023/12/08 09:28:27;;;;;;;33.33;22.47;;;0.80;99.90;;;;;;5076306;28;20197;-78
2023/12/08 09:30:54;;;;;;;33.43;22.17;;;0.80;99.90;;;;;;5076117;28;20299;-78
2023/12/08 09:33:22;;;;;;;32.77;23.83;;;0.80;99.90;;;;;;5076259;28;20201;-79
2023/12/08 09:35:49;;;;;;;33.43;23.53;;;0.90;99.90;;;;;;5076029;28;20298;-79
2023/12/08 09:38:16;;;;;;;33.13;22.30;;;0.90;99.90;;;;;;5075751;28;20204;-78
2023/12/08 09:40:44;;;;;;;34.17;23.17;;;1.00;99.90;;;;;;5075535;28;20599;-78
2023/12/08 09:43:17;;;;;;;34.50;24.73;;;1.00;99.90;;;;;;5075748;28;20405;-76
2023/12/08 09:45:46;;;;;;;33.60;23.63;;;1.10;99.90;;;;;;5075931;28;20291;-76
2023/12/08 09:48:13;;;;;;;36.90;23.07;;;1.20;99.90;;;;;;5075837;28;20204;-76
2023/12/08 09:50:41;;;;;;;36.27;23.20;;;1.20;99.90;;;;;;5075265;28;20236;-75
2023/12/08 09:53:08;;;;;;;37.47;23.70;;;1.20;99.90;;;;;;5075655;28;20246;-79
2023/12/08 09:55:37;;;;;;;36.13;23.53;;;1.30;99.90;;;;;;5075158;28;20201;-79
2023/12/08 09:58:04;;;;;;;31.57;22.50;;;1.30;99.90;;;;;;5075372;28;20235;-80
2023/12/08 10:00:33;;;;;;;34.47;23.30;;;1.30;99.90;;;;;;5075491;28;20247;-78
2023/12/08 10:03:00;;;;;;;37.97;25.13;;;1.30;99.90;;;;;;5075579;28;20247;-79
2023/12/08 10:05:27;;;;;;;33.90;23.07;;;1.40;99.90;;;;;;5075433;28;20207;-80
2023/12/08 10:07:57;;;;;;;37.33;22.93;;;1.50;99.90;;;;;;5075521;28;20189;-79
2023/12/08 10:10:24;;;;;;;36.80;23.80;;;1.50;99.90;;;;;;5075323;28;20698;-80
2023/12/08 10:12:51;;;;;;;36.87;24.03;;;1.30;99.90;;;;;;5075635;28;20196;-80
2023/12/08 10:15:18;;;;;;;35.90;23.07;;;1.30;99.90;;;;;;5075276;28;20555;-81
2023/12/08 10:17:47;;;;;;;41.87;26.17;;;1.30;99.90;;;;;;5075202;28;20221;-80
2023/12/08 10:20:14;;;;;;;37.37;25.03;;;1.20;99.90;;;;;;5075052;28;20248;-75
2023/12/08 10:22:47;;;;;;;37.50;24.27;;;1.30;99.90;;;;;;5075090;28;20201;-76
2023/12/08 10:25:16;;;;;;;40.13;26.13;;;1.30;99.90;;;;;;5075792;28;20231;-75
2023/12/08 10:27:43;;;;;;;40.00;25.30;;;1.30;99.90;;;;;;5073961;28;20212;-75
2023/12/08 10:30:12;;;;;;;38.87;25.97;;;1.30;99.90;;;;;;5071777;28;20197;-75
2023/12/08 10:32:39;;;;;;;39.93;26.13;;;1.30;99.90;;;;;;5071792;28;20222;-74
2023/12/08 10:35:06;;;;;;;40.70;27.10;;;1.40;99.90;;;;;;5071643;28;20209;-76
2023/12/08 10:37:33;;;;;;;46.37;28.77;;;1.40;99.90;;;;;;5071573;28;20273;-75
2023/12/08 10:40:00;;;;;;;46.63;27.63;;;1.50;99.90;;;;;;5071598;28;20208;-75
2023/12/08 10:42:28;;;;;;;44.10;28.03;;;1.60;99.90;;;;;;5070957;28;20641;-75
2023/12/08 10:44:55;;;;;;;40.87;27.47;;;1.60;99.90;;;;;;5071566;28;20209;-75
2023/12/08 10:47:22;;;;;;;40.53;27.57;;;1.60;99.90;;;;;;5071436;28;20201;-75
2023/12/08 10:49:50;;;;;;;42.50;26.43;;;1.60;99.90;;;;;;5071121;28;20232;-76
2023/12/08 10:52:19;;;;;;;41.23;27.13;;;1.70;99.90;;;;;;5071609;28;20267;-75
2023/12/08 10:54:45;;;;;;;42.07;27.63;;;1.60;99.90;;;;;;5071124;28;20673;-75
2023/12/08 10:57:12;;;;;;;39.27;26.50;;;1.60;99.90;;;;;;5071208;28;20259;-76
2023/12/08 10:59:43;;;;;;;47.00;28.07;;;1.60;99.90;;;;;;5071256;28;20197;-75
2023/12/08 11:02:19;;;;;;;48.03;27.13;;;1.70;99.90;;;;;;5071117;28;20567;-76
2023/12/08 11:04:50;;;;;;;38.37;26.27;;;1.80;99.90;;;;;;5071470;28;20205;-76
2023/12/08 11:07:21;;;;;;;40.83;28.47;;;1.80;99.90;;;;;;5069981;28;20209;-76
2023/12/08 11:09:50;;;;;;;39.23;27.73;;;1.90;99.90;;;;;;5070905;28;20690;-77
2023/12/08 11:12:19;;;;;;;40.87;26.77;;;1.80;99.90;;;;;;5071018;28;20223;-76
2023/12/08 11:15:03;;;;;;;39.63;26.00;;;1.90;99.90;;;;;;5071023;28;20213;-76
2023/12/08 11:17:35;;;;;;;40.13;27.67;;;1.90;99.90;;;;;;5070278;28;20767;-76
2023/12/08 11:20:03;;;;;;;40.70;27.63;;;1.80;99.90;;;;;;5070892;28;20263;-74
2023/12/08 11:22:29;;;;;;;41.53;27.17;;;1.80;99.90;;;;;;5070994;28;20714;-75
2023/12/08 11:24:57;;;;;;;39.53;27.07;;;1.70;99.90;;;;;;5073289;28;20714;-74
2023/12/08 11:27:31;;;;;;;41.60;27.83;;;1.80;99.90;;;;;;5073241;28;20197;-76
2023/12/08 11:30:06;;;;;;;41.73;27.83;;;1.90;99.90;;;;;;5073784;28;20193;-74
2023/12/08 11:32:42;;;;;;;38.20;26.80;;;1.80;99.90;;;;;;5073693;28;20205;-74
2023/12/08 11:35:12;;;;;;;44.23;29.33;;;1.90;99.90;;;;;;5073662;28;20196;-74
2023/12/08 11:37:40;;;;;;;40.47;27.87;;;1.80;99.90;;;;;;5073494;28;20271;-74
2023/12/08 11:40:11;;;;;;;42.73;29.00;;;1.90;99.90;;;;;;5073469;28;20201;-74
2023/12/08 11:42:38;;;;;;;40.87;28.33;;;2.00;99.90;;;;;;5073261;28;20223;-74
2023/12/08 11:45:08;;;;;;;43.17;28.40;;;2.00;99.90;;;;;;5073420;28;20196;-75
2023/12/08 11:47:36;;;;;;;41.37;28.53;;;2.00;99.90;;;;;;5073478;28;20201;-75
2023/12/08 11:50:05;;;;;;;40.27;28.63;;;1.90;99.90;;;;;;5073173;28;20261;-75
2023/12/08 11:52:34;;;;;;;41.73;27.57;;;2.00;99.90;;;;;;5073115;28;20208;-76
2023/12/08 11:55:07;;;;;;;42.83;28.77;;;1.90;99.90;;;;;;5073436;28;20204;-76
2023/12/08 11:57:36;;;;;;;45.83;28.83;;;2.00;99.90;;;;;;5072970;28;20217;-75
2023/12/08 12:00:10;;;;;;;43.87;28.43;;;2.00;99.90;;;;;;5073400;28;20228;-76
2023/12/08 12:02:38;;;;;;;39.70;28.20;;;1.90;99.90;;;;;;5057211;28;20228;-75
2023/12/08 12:05:06;;;;;;;43.73;29.63;;;1.90;99.90;;;;;;5052294;28;20201;-76
2023/12/08 12:07:34;;;;;;;45.37;29.37;;;2.00;99.90;;;;;;5052812;28;20597;-76
2023/12/08 12:10:03;;;;;;;45.20;30.27;;;2.00;99.90;;;;;;5052751;28;20244;-76
2023/12/08 12:12:32;;;;;;;45.33;29.73;;;2.00;99.90;;;;;;5052873;28;20202;-76
2023/12/08 12:15:03;;;;;;;49.23;31.37;;;2.10;99.90;;;;;;5052669;28;20290;-76
2023/12/08 12:17:31;;;;;;;45.43;29.00;;;2.10;99.90;;;;;;5052279;28;20328;-78
2023/12/08 12:19:58;;;;;;;43.70;29.95;;;2.00;99.90;;;;;;5052293;28;20907;-78
2023/12/08 12:22:25;;;;;;;42.57;29.13;;;2.10;99.90;;;;;;5052847;28;20252;-74
2023/12/08 12:24:52;;;;;;;43.87;29.10;;;2.20;99.90;;;;;;5052872;28;20232;-80
2023/12/08 12:27:18;;;;;;;43.37;30.23;;;2.30;99.90;;;;;;5052999;28;20263;-83
2023/12/08 12:29:46;;;;;;;41.60;28.83;;;2.40;99.90;;;;;;5053632;28;20202;-84
2023/12/08 12:32:14;;;;;;;42.43;28.50;;;2.40;99.90;;;;;;5053294;28;20197;-80